Astor — C6JR3 — position and weather

sailwx.info

Track history (hours):
 
Tides and Currents Weather Stations Pressure Air Temp Water Temp Dewpoint Dewpoint Depression Visibility Wind Speed Wind Dir Waves Ship Positions

Astor

Operator: Passat Ship Management Ltd

Last reported at 2018-Sep-24 18:19 UTC. Time now 2018-Sep-24 21:50 UTC.
Position N 53°55' E 007°43'.

Length 176 m; draft 6.2 m.

Type: Ship. MMSI: 308214000.

Date/timePositionNaut miles runAvg speedWind from/ knotsBaromVisibWave heightAir tempDewpointWater temp
2018-Sep-24 18:19N 53°55' E 007°43'710.4
2018-Sep-24 17:41N 53°52' E 007°53'210.5
2018-Sep-24 17:27N 53°52' E 007°57'511.3
2018-Sep-24 17:03N 53°50' E 008°04'012.0
2018-Sep-24 17:00N 53°50' E 008°05'713.2
2018-Sep-24 16:30N 53°45' E 008°13'715.2
2018-Sep-24 16:03N 53°41' E 008°22'115.7
2018-Sep-24 16:00N 53°40' E 008°23'714.2
2018-Sep-24 15:30N 53°35' E 008°31'2 4.6
2018-Sep-24 15:03N 53°34' E 008°33'0 0.0
2018-Sep-24 15:00N 53°34' E 008°33'0 0.0
2018-Sep-24 14:29N 53°34' E 008°33'0 0.0
2018-Sep-24 13:58N 53°34' E 008°33'0 0.0
2018-Sep-24 13:28N 53°34' E 008°33'0 0.0
2018-Sep-24 13:01N 53°34' E 008°33'0 0.1
2018-Sep-24 12:58N 53°34' E 008°33'0 0.0
2018-Sep-24 12:25N 53°34' E 008°33'0 0.0
2018-Sep-24 12:00N 53°34' E 008°33'0 0.0
2018-Sep-24 11:30N 53°34' E 008°33'0 0.0
2018-Sep-24 11:03N 53°34' E 008°33'0 0.0
2018-Sep-24 11:00N 53°34' E 008°33'0 0.0
2018-Sep-24 10:30N 53°34' E 008°33'0 0.0
2018-Sep-24 10:03N 53°34' E 008°33'0 0.1
2018-Sep-24 10:00N 53°34' E 008°33'0 0.0
2018-Sep-24 09:29N 53°34' E 008°33'0 0.0
2018-Sep-24 09:02N 53°34' E 008°33'0 0.1
2018-Sep-24 08:59N 53°34' E 008°33'0 0.0
2018-Sep-24 08:29N 53°34' E 008°33'0 0.0
2018-Sep-24 08:02N 53°34' E 008°33'0 0.1
2018-Sep-24 07:59N 53°34' E 008°33'0 0.0
2018-Sep-24 07:28N 53°34' E 008°33'0 0.0
2018-Sep-24 07:01N 53°34' E 008°33'0 0.1
2018-Sep-24 06:58N 53°34' E 008°33'0 0.0
2018-Sep-24 06:28N 53°34' E 008°33'0 0.0
2018-Sep-24 06:01N 53°34' E 008°33'0 0.1
2018-Sep-24 05:58N 53°34' E 008°33'0 0.5
2018-Sep-24 05:30N 53°34' E 008°33'3 7.0
2018-Sep-24 05:03N 53°36' E 008°30'111.1
2018-Sep-24 05:00N 53°37' E 008°29'610.9
2018-Sep-24 04:30N 53°40' E 008°22'612.8
2018-Sep-24 04:03N 53°44' E 008°15'113.7
2018-Sep-24 04:00N 53°44' E 008°14'713.5
2018-Sep-24 03:30N 53°49' E 008°06'612.3
2018-Sep-24 03:02N 53°51' E 007°57'112.8
2018-Sep-24 03:00N 53°51' E 007°56'510.8
2018-Sep-24 02:30N 53°53' E 007°47'3310.7
2018-Sep-23 23:24N 53°49' E 006°51'1713.1
2018-Sep-23 22:07N 53°45' E 006°23'113.8
2018-Sep-23 22:01N 53°45' E 006°21'013.1
2018-Sep-23 22:00N 53°45' E 006°21'3213.8
2018-Sep-23 19:38N 53°35' E 005°28'214.2
2018-Sep-23 19:30N 53°34' E 005°26'613.8
2018-Sep-23 19:03N 53°32' E 005°16'114.2
2018-Sep-23 19:00N 53°32' E 005°15'814.6
2018-Sep-23 18:29N 53°29' E 005°03'715.7
2018-Sep-23 18:03N 53°26' E 004°53'116.1
2018-Sep-23 18:01N 53°26' E 004°52'815.5
2018-Sep-23 17:30N 53°22' E 004°40'715.6
2018-Sep-23 17:04N 53°16' E 004°35'116.0
2018-Sep-23 17:00N 53°15' E 004°34'816.1
2018-Sep-23 16:30N 53°08' E 004°29'716.3
2018-Sep-23 16:03N 53°01' E 004°23'116.1
2018-Sep-23 16:01N 53°01' E 004°23'816.2
2018-Sep-23 15:31N 52°53' E 004°17'816.5
2018-Sep-23 15:03N 52°47' E 004°10'116.6
2018-Sep-23 14:58N 52°46' E 004°09'816.8
2018-Sep-23 14:30N 52°40' E 003°60'1717.0
2018-Sep-23 13:30N 52°28' E 003°40'816.9
2018-Sep-23 13:03N 52°23' E 003°31'116.6
2018-Sep-23 13:00N 52°22' E 003°30'816.6
2018-Sep-23 12:30N 52°18' E 003°18'4414.0
2018-Sep-23 09:23N 51°44' E 002°34'514.9
2018-Sep-23 09:02N 51°40' E 002°29'115.3
2018-Sep-23 08:59N 51°39' E 002°28'714.8
2018-Sep-23 08:30N 51°33' E 002°21'614.5
2018-Sep-23 08:03N 51°28' E 002°15'113.6
2018-Sep-23 08:00N 51°28' E 002°14'714.3
2018-Sep-23 07:30N 51°22' E 002°09'614.3
2018-Sep-23 07:03N 51°16' E 002°05'113.9
2018-Sep-23 07:00N 51°15' E 002°04'713.4
2018-Sep-23 06:29N 51°11' E 001°55'613.5
2018-Sep-23 06:03N 51°08' E 001°48'113.6
2018-Sep-23 06:00N 51°07' E 001°47'713.4
2018-Sep-23 05:30N 51°02' E 001°40'613.1
2018-Sep-23 05:03N 50°59' E 001°32'113.8
2018-Sep-23 05:00N 50°58' E 001°32'713.8
2018-Sep-23 04:31N 50°53' E 001°24'614.3
2018-Sep-23 04:03N 50°47' E 001°23'114.6
2018-Sep-23 04:00N 50°46' E 001°23'8912.5
2018-Sep-22 20:52N 50°34' W 000°57'513.5
2018-Sep-22 20:30N 50°39' W 000°59'4 8.5
2018-Sep-22 20:03N 50°42' W 000°59'0 8.3
2018-Sep-22 20:00N 50°43' W 000°59'611.1
2018-Sep-22 19:30N 50°46' W 001°06'2 5.0
2018-Sep-22 19:03N 50°49' W 001°06'0 0.9
2018-Sep-22 19:00N 50°49' W 001°06'0 0.0
2018-Sep-22 18:30N 50°49' W 001°06'0 0.0
2018-Sep-22 18:03N 50°49' W 001°06'0 0.0
2018-Sep-22 18:00N 50°49' W 001°06'0 0.0
2018-Sep-22 17:30N 50°49' W 001°06'0 0.0
2018-Sep-22 17:03N 50°49' W 001°06'0 0.1
2018-Sep-22 17:00N 50°49' W 001°06'0 0.0
2018-Sep-22 16:29N 50°49' W 001°06'0 0.0
2018-Sep-22 16:02N 50°49' W 001°06'0 0.0
2018-Sep-22 15:59N 50°49' W 001°06'0 0.0
2018-Sep-22 15:29N 50°49' W 001°06'0 0.0
2018-Sep-22 15:02N 50°49' W 001°06'0 0.0
2018-Sep-22 14:59N 50°49' W 001°06'0 0.0
2018-Sep-22 14:29N 50°49' W 001°06'0 0.0
2018-Sep-22 13:58N 50°49' W 001°06'0 0.0
2018-Sep-22 13:28N 50°49' W 001°06'0 0.0
2018-Sep-22 13:01N 50°49' W 001°06'0 0.1
2018-Sep-22 12:58N 50°49' W 001°06'0 0.0
2018-Sep-22 12:28N 50°49' W 001°06'0 0.0
2018-Sep-22 12:04N 50°49' W 001°06'0 0.0
2018-Sep-22 12:00N 50°49' W 001°06'0 0.0
2018-Sep-22 11:30N 50°49' W 001°06'0 0.0
2018-Sep-22 11:03N 50°49' W 001°06'0 0.0
2018-Sep-22 11:00N 50°49' W 001°06'0 0.0
2018-Sep-22 10:30N 50°49' W 001°06'0 0.0
2018-Sep-22 10:03N 50°49' W 001°06'0 0.1
2018-Sep-22 10:00N 50°49' W 001°06'0 0.0
2018-Sep-22 09:29N 50°49' W 001°06'0 0.0
2018-Sep-22 09:02N 50°49' W 001°06'0 0.0
2018-Sep-22 08:59N 50°49' W 001°06'0 0.0
2018-Sep-22 08:29N 50°49' W 001°06'0 0.0
2018-Sep-22 08:02N 50°49' W 001°06'0 0.0
2018-Sep-22 07:53N 50°49' W 001°06'0 0.0
2018-Sep-22 07:29N 50°49' W 001°06'0 0.0
2018-Sep-22 07:01N 50°49' W 001°06'0 0.0
2018-Sep-22 06:58N 50°49' W 001°06'0 0.0
2018-Sep-22 06:28N 50°49' W 001°06'0 0.0
2018-Sep-22 06:01N 50°49' W 001°06'0 0.0
2018-Sep-22 05:58N 50°49' W 001°06'0 0.0
2018-Sep-22 05:28N 50°49' W 001°06'0 0.0
2018-Sep-22 05:03N 50°49' W 001°06'0 0.0
2018-Sep-22 05:00N 50°49' W 001°06'0 0.0
2018-Sep-22 04:30N 50°49' W 001°06'0 0.0
2018-Sep-22 04:03N 50°49' W 001°06'0 0.1
2018-Sep-22 04:00N 50°49' W 001°06'0 0.0
2018-Sep-22 03:30N 50°49' W 001°06'0 0.0
2018-Sep-22 03:00N 50°49' W 001°06'0 0.0
2018-Sep-22 02:29N 50°49' W 001°06'0 0.0
2018-Sep-22 02:02N 50°49' W 001°06'0 0.1
2018-Sep-22 01:59N 50°49' W 001°06'0 0.0
2018-Sep-22 01:29N 50°49' W 001°06'0 0.0
2018-Sep-22 01:03N 50°49' W 001°06'0 0.0
2018-Sep-22 00:56N 50°49' W 001°06'0 0.0
2018-Sep-22 00:28N 50°49' W 001°06'0 0.0
2018-Sep-22 00:01N 50°49' W 001°06'0 0.1
2018-Sep-21 23:58N 50°49' W 001°06'0 0.0
2018-Sep-21 23:28N 50°49' W 001°06'0 0.0
2018-Sep-21 23:01N 50°49' W 001°06'0 0.0
2018-Sep-21 22:58N 50°49' W 001°06'0 0.0
2018-Sep-21 22:28N 50°49' W 001°06'0 0.0
2018-Sep-21 22:03N 50°49' W 001°06'0 0.0
2018-Sep-21 22:00N 50°49' W 001°06'0 0.0
2018-Sep-21 21:30N 50°49' W 001°06'0 0.0
2018-Sep-21 21:03N 50°49' W 001°06'0 0.0
2018-Sep-21 21:00N 50°49' W 001°06'0 0.0
2018-Sep-21 20:30N 50°49' W 001°06'0 0.0
2018-Sep-21 20:03N 50°49' W 001°06'0 0.0
2018-Sep-21 20:00N 50°49' W 001°06'0 0.0
2018-Sep-21 19:29N 50°49' W 001°06'0 0.0
2018-Sep-21 19:02N 50°49' W 001°06'0 0.0
2018-Sep-21 18:59N 50°49' W 001°06'0 0.0
2018-Sep-21 18:29N 50°49' W 001°06'0 0.0
2018-Sep-21 18:02N 50°49' W 001°06'0 0.0
2018-Sep-21 17:59N 50°49' W 001°06'0 0.0
2018-Sep-21 17:25N 50°49' W 001°06'0 0.0
2018-Sep-21 17:01N 50°49' W 001°06'0 0.1
2018-Sep-21 16:58N 50°49' W 001°06'0 0.0
2018-Sep-21 16:25N 50°49' W 001°06'0 0.0
2018-Sep-21 16:01N 50°49' W 001°06'0 0.0
2018-Sep-21 15:58N 50°49' W 001°06'0 0.0
2018-Sep-21 15:28N 50°49' W 001°06'0 0.0
2018-Sep-21 15:03N 50°49' W 001°06'0 0.0
2018-Sep-21 15:00N 50°49' W 001°06'1 0.6
2018-Sep-21 14:00N 50°49' W 001°07'4 7.9
2018-Sep-21 13:30N 50°45' W 001°05'511.3
2018-Sep-21 13:03N 50°42' W 000°58'111.1
2018-Sep-21 13:00N 50°41' W 000°58'3 6.8
2018-Sep-21 12:30N 50°38' W 000°59'4 7.8
2018-Sep-21 12:03N 50°35' W 001°01'110.2
2018-Sep-21 12:00N 50°34' W 001°01'510.0
2018-Sep-21 11:30N 50°29' W 001°04'4 9.5
2018-Sep-21 11:03N 50°26' W 001°07'47 9.6
2018-Sep-21 06:10N 50°33' W 002°20'212.4
2018-Sep-21 06:02N 50°34' W 002°21'012.3
2018-Sep-21 06:00N 50°34' W 002°22'2 0.1
2018-Sep-20 13:25N 50°34' W 002°26'2 5.1
2018-Sep-20 13:03N 50°36' W 002°24'3 8.1
2018-Sep-20 12:42N 50°34' W 002°21'312.7
2018-Sep-20 12:30N 50°33' W 002°17'2616.3
2018-Sep-20 10:54N 50°31' W 001°36'1016.8
2018-Sep-20 10:19N 50°31' W 001°21'417.2
2018-Sep-20 10:03N 50°31' W 001°14'117.1
2018-Sep-20 10:00N 50°31' W 001°12'816.7
2018-Sep-20 09:30N 50°30' W 000°59'716.3
2018-Sep-20 09:03N 50°31' W 000°48'115.9
2018-Sep-20 09:00N 50°31' W 000°46'815.6
2018-Sep-20 08:28N 50°30' W 000°33'2115.3
2018-Sep-20 07:07N 50°33' W 000°01'215.0
2018-Sep-20 07:00N 50°33' E 000°02'714.8
2018-Sep-20 06:30N 50°35' E 000°13'714.6
2018-Sep-20 06:03N 50°37' E 000°23'114.4
2018-Sep-20 06:00N 50°37' E 000°24'714.4
2018-Sep-20 05:30N 50°39' E 000°35'714.6
2018-Sep-20 05:03N 50°43' E 000°43'114.8
2018-Sep-20 05:00N 50°44' E 000°44'714.9
2018-Sep-20 04:30N 50°48' E 000°54'715.3
2018-Sep-20 04:03N 50°51' E 001°03'115.6
2018-Sep-20 04:00N 50°52' E 001°04'816.0
2018-Sep-20 03:30N 50°57' E 001°14'716.6
2018-Sep-20 03:03N 51°02' E 001°23'117.0
2018-Sep-20 03:00N 51°03' E 001°24'816.7
2018-Sep-20 02:30N 51°08' E 001°34'715.9
2018-Sep-20 02:03N 51°15' E 001°38'116.2
2018-Sep-20 02:00N 51°16' E 001°38'815.2
2018-Sep-20 01:30N 51°23' E 001°33'510.9
2018-Sep-20 01:03N 51°26' E 001°28'0 8.6
2018-Sep-20 01:01N 51°27' E 001°28'713.8
2018-Sep-20 00:30N 51°29' E 001°17'715.3
2018-Sep-20 00:03N 51°29' E 001°06'115.4
2018-Sep-20 00:00N 51°30' E 001°05'815.2
2018-Sep-19 23:31N 51°29' E 000°53'715.7
2018-Sep-19 23:03N 51°30' E 000°42'116.3
2018-Sep-19 23:00N 51°30' E 000°40'714.4
2018-Sep-19 22:31N 51°30' E 000°29'510.7
2018-Sep-19 22:04N 51°27' E 000°23'0 6.1
2018-Sep-19 22:00N 51°27' E 000°22'4 8.2
2018-Sep-19 21:30N 51°28' E 000°16'410.1
2018-Sep-19 21:03N 51°30' E 000°10'112.1
2018-Sep-19 21:00N 51°31' E 000°09'3 0.1
2018-Sep-18 17:19N 51°30' E 000°04'2 8.2
2018-Sep-18 17:03N 51°31' E 000°07'0 9.4
2018-Sep-18 17:00N 51°31' E 000°07'611.8
2018-Sep-18 16:30N 51°28' E 000°16'4 9.4
2018-Sep-18 16:03N 51°27' E 000°22'0 6.5
2018-Sep-18 16:00N 51°27' E 000°23'4 7.8
2018-Sep-18 15:30N 51°29' E 000°28'4 9.2
2018-Sep-18 15:03N 51°30' E 000°34'0 9.9
2018-Sep-18 15:00N 51°30' E 000°35'1212.1
2018-Sep-18 14:03N 51°29' E 000°53'114.3
2018-Sep-18 14:00N 51°29' E 000°55'713.9
2018-Sep-18 13:31N 51°30' E 001°06'613.8
2018-Sep-18 13:03N 51°29' E 001°16'113.9
2018-Sep-18 13:00N 51°29' E 001°17'713.8
2018-Sep-18 12:30N 51°28' E 001°28'4 9.5
2018-Sep-18 12:04N 51°28' E 001°35'113.8
2018-Sep-18 12:01N 51°29' E 001°35'713.8
2018-Sep-18 11:30N 51°32' E 001°45'715.0
2018-Sep-18 11:03N 51°35' E 001°55'114.9
2018-Sep-18 11:00N 51°36' E 001°56'714.8
2018-Sep-18 10:30N 51°41' E 002°04'614.3
2018-Sep-18 10:03N 51°45' E 002°12'114.3
2018-Sep-18 09:59N 51°46' E 002°13'814.2
2018-Sep-18 09:24N 51°50' E 002°24'514.3
2018-Sep-18 09:03N 51°53' E 002°31'114.4
2018-Sep-18 09:00N 51°54' E 002°32'814.1
2018-Sep-18 08:24N 51°60' E 002°41'714.3
2018-Sep-18 07:56N 52°05' E 002°48'614.5
2018-Sep-18 07:30N 52°10' E 002°55'714.5
2018-Sep-18 07:03N 52°15' E 003°01'114.7
2018-Sep-18 07:00N 52°15' E 003°02'714.6
2018-Sep-18 06:30N 52°21' E 003°09'714.9
2018-Sep-18 06:02N 52°27' E 003°16'115.4
2018-Sep-18 06:00N 52°28' E 003°16'815.3
2018-Sep-18 05:30N 52°34' E 003°24'715.8
2018-Sep-18 05:03N 52°39' E 003°31'116.4
2018-Sep-18 05:00N 52°40' E 003°32'816.1
2018-Sep-18 04:29N 52°46' E 003°40'816.4
2018-Sep-18 04:01N 52°52' E 003°48'115.9
2018-Sep-18 03:59N 52°53' E 003°49'1116.5
2018-Sep-18 03:20N 53°00' E 004°02'516.7
2018-Sep-18 03:03N 53°03' E 004°08'116.7
2018-Sep-18 03:00N 53°04' E 004°09'816.6
2018-Sep-18 02:30N 53°09' E 004°20'715.9
2018-Sep-18 02:03N 53°15' E 004°26'116.3
2018-Sep-18 02:01N 53°16' E 004°27'815.9
2018-Sep-18 01:30N 53°23' E 004°32'715.3
2018-Sep-18 01:04N 53°29' E 004°39'115.7
2018-Sep-18 01:01N 53°29' E 004°40'815.4
2018-Sep-18 00:30N 53°32' E 004°52'715.2
2018-Sep-18 00:03N 53°34' E 005°03'115.3
2018-Sep-18 00:01N 53°35' E 005°04'815.1
2018-Sep-17 23:30N 53°38' E 005°15'715.1
2018-Sep-17 23:03N 53°40' E 005°26'115.4
2018-Sep-17 22:57N 53°41' E 005°29'715.5
2018-Sep-17 22:29N 53°43' E 005°41'815.8
2018-Sep-17 21:59N 53°45' E 005°53'816.3
2018-Sep-17 21:30N 53°47' E 006°06'816.7
2018-Sep-17 21:02N 53°49' E 006°19'116.9
2018-Sep-17 20:59N 53°50' E 006°20'1317.1
2018-Sep-17 20:13N 53°53' E 006°41'417.2
2018-Sep-17 19:58N 53°54' E 006°49'3016.9
2018-Sep-17 18:10N 53°59' E 007°40'216.9
2018-Sep-17 18:04N 53°57' E 007°41'116.5
2018-Sep-17 18:00N 53°57' E 007°42'1013.7
2018-Sep-17 17:16N 53°52' E 007°57'315.2
2018-Sep-17 17:04N 53°51' E 008°02'115.7
2018-Sep-17 17:00N 53°50' E 008°04'815.7
2018-Sep-17 16:30N 53°45' E 008°13'714.8
2018-Sep-17 16:03N 53°41' E 008°22'114.2
2018-Sep-17 16:00N 53°40' E 008°23'612.1
2018-Sep-17 15:30N 53°36' E 008°30'3 6.7
2018-Sep-17 15:03N 53°34' E 008°33'0 0.8
2018-Sep-17 14:59N 53°34' E 008°33'0 0.0
2018-Sep-17 14:28N 53°34' E 008°33'0 0.0
2018-Sep-17 13:58N 53°34' E 008°33'0 0.0
2018-Sep-17 13:28N 53°34' E 008°33'0 0.0
2018-Sep-17 13:01N 53°34' E 008°33'0 0.0
2018-Sep-17 12:58N 53°34' E 008°33'0 0.0
2018-Sep-17 12:28N 53°34' E 008°33'0 0.0
2018-Sep-17 12:03N 53°34' E 008°33'0 0.0
2018-Sep-17 12:00N 53°34' E 008°33'0 0.0
2018-Sep-17 11:30N 53°34' E 008°33'0 0.0
2018-Sep-17 11:00N 53°34' E 008°33'0 0.0
2018-Sep-17 10:30N 53°34' E 008°33'0 0.0
2018-Sep-17 10:03N 53°34' E 008°33'0 0.0
2018-Sep-17 10:00N 53°34' E 008°33'0 0.0
2018-Sep-17 09:29N 53°34' E 008°33'0 0.0
2018-Sep-17 09:02N 53°34' E 008°33'0 0.0
2018-Sep-17 08:59N 53°34' E 008°33'0 0.0
2018-Sep-17 08:29N 53°34' E 008°33'0 0.0
2018-Sep-17 08:02N 53°34' E 008°33'0 0.0
2018-Sep-17 07:59N 53°34' E 008°33'0 0.0
2018-Sep-17 07:28N 53°34' E 008°33'0 0.0
2018-Sep-17 07:01N 53°34' E 008°33'0 0.0
2018-Sep-17 06:58N 53°34' E 008°33'0 0.0
2018-Sep-17 06:30N 53°34' E 008°33'4 7.8
2018-Sep-17 06:03N 53°36' E 008°30'112.4
2018-Sep-17 06:00N 53°37' E 008°29'612.3
2018-Sep-17 05:30N 53°41' E 008°21'612.7
2018-Sep-17 05:03N 53°44' E 008°13'112.7
2018-Sep-17 05:00N 53°45' E 008°13'612.7
2018-Sep-17 04:30N 53°50' E 008°05'612.8
2018-Sep-17 04:03N 53°52' E 007°56'113.3
2018-Sep-17 04:00N 53°52' E 007°55'611.3
2018-Sep-17 03:30N 53°53' E 007°46'2912.7
2018-Sep-17 01:15N 53°50' E 006°57'514.7
2018-Sep-17 00:54N 53°50' E 006°49'715.6
2018-Sep-17 00:26N 53°48' E 006°37'2415.7
2018-Sep-16 22:54N 53°41' E 005°58'615.6
2018-Sep-16 22:30N 53°39' E 005°48'715.6
2018-Sep-16 22:03N 53°37' E 005°37'115.6
2018-Sep-16 22:00N 53°37' E 005°36'815.7
2018-Sep-16 21:30N 53°34' E 005°23'715.6
2018-Sep-16 21:03N 53°32' E 005°12'115.7
2018-Sep-16 21:00N 53°31' E 005°10'815.5
2018-Sep-16 20:30N 53°29' E 004°59'714.9
2018-Sep-16 20:03N 53°26' E 004°48'114.8
2018-Sep-16 20:00N 53°26' E 004°47'814.6
2018-Sep-16 19:28N 53°19' E 004°39'716.6
2018-Sep-16 19:03N 53°13' E 004°34'117.0
2018-Sep-16 19:00N 53°12' E 004°33'817.0
2018-Sep-16 18:30N 53°05' E 004°27'816.7
2018-Sep-16 18:03N 52°58' E 004°21'116.4
2018-Sep-16 18:00N 52°57' E 004°20'816.3
2018-Sep-16 17:30N 52°50' E 004°15'716.2
2018-Sep-16 17:03N 52°44' E 004°08'116.2
2018-Sep-16 17:00N 52°43' E 004°07'815.7
2018-Sep-16 16:30N 52°39' E 003°57'716.0
2018-Sep-16 16:03N 52°34' E 003°48'115.4
2018-Sep-16 16:00N 52°33' E 003°48'815.9
2018-Sep-16 15:30N 52°27' E 003°39'715.4
2018-Sep-16 15:03N 52°22' E 003°31'115.8
2018-Sep-16 15:00N 52°22' E 003°30'815.6
2018-Sep-16 14:30N 52°16' E 003°21'1615.3
2018-Sep-16 13:27N 52°05' E 003°03'2315.1
2018-Sep-16 11:56N 51°48' E 002°38'915.3
2018-Sep-16 11:22N 51°41' E 002°29'615.4
2018-Sep-16 11:01N 51°37' E 002°23'014.6
2018-Sep-16 10:59N 51°37' E 002°23'815.7
2018-Sep-16 10:30N 51°31' E 002°15'716.0
2018-Sep-16 10:03N 51°24' E 002°11'116.0
2018-Sep-16 10:00N 51°23' E 002°10'816.1
2018-Sep-16 09:30N 51°16' E 002°05'715.7
2018-Sep-16 09:03N 51°12' E 001°56'116.1
2018-Sep-16 09:00N 51°11' E 001°55'815.9
2018-Sep-16 08:30N 51°06' E 001°46'716.4
2018-Sep-16 08:03N 51°01' E 001°37'116.4
2018-Sep-16 08:00N 51°00' E 001°36'816.8
2018-Sep-16 07:30N 50°54' E 001°27'817.0
2018-Sep-16 07:03N 50°47' E 001°23'117.0
2018-Sep-16 07:00N 50°46' E 001°23'816.5
2018-Sep-16 06:30N 50°40' E 001°15'816.9
2018-Sep-16 06:03N 50°34' E 001°06'216.8
2018-Sep-16 05:57N 50°33' E 001°04'816.8
2018-Sep-16 05:30N 50°28' E 000°55'716.6
2018-Sep-16 05:03N 50°23' E 000°47'216.8
2018-Sep-16 04:56N 50°21' E 000°46'816.8
2018-Sep-16 04:29N 50°15' E 000°39'716.8
2018-Sep-16 04:03N 50°09' E 000°32'116.8
2018-Sep-16 03:59N 50°08' E 000°31'816.8
2018-Sep-16 03:29N 50°01' E 000°23'717.0
2018-Sep-16 03:04N 49°55' E 000°16'117.1
2018-Sep-16 03:01N 49°55' E 000°16'917.5
2018-Sep-16 02:30N 49°48' E 000°07'817.9
2018-Sep-16 02:03N 49°41' E 000°00'117.5
2018-Sep-16 02:01N 49°41' W 000°00'917.4
2018-Sep-16 01:31N 49°33' W 000°06'511.8
2018-Sep-16 01:04N 49°28' W 000°01'111.2
2018-Sep-16 01:01N 49°28' W 000°01'612.9
2018-Sep-16 00:30N 49°26' E 000°09'612.3
2018-Sep-16 00:03N 49°26' E 000°17'110.9
2018-Sep-16 00:00N 49°26' E 000°18'5 9.8
2018-Sep-15 23:31N 49°27' E 000°25'4 8.2
2018-Sep-15 23:03N 49°29' E 000°30'0 6.6
2018-Sep-15 23:01N 49°29' E 000°31'4 7.1
2018-Sep-15 22:31N 49°26' E 000°34'4 9.5
2018-Sep-15 22:03N 49°29' E 000°40'112.6
2018-Sep-15 22:00N 49°29' E 000°40'4 8.5
2018-Sep-15 21:30N 49°31' E 000°46'410.1
2018-Sep-15 21:04N 49°26' E 000°49'110.4
2018-Sep-15 21:01N 49°26' E 000°48'3 5.4
2018-Sep-15 20:31N 49°25' E 000°52'4 9.3
2018-Sep-15 20:04N 49°29' E 000°54'110.5
2018-Sep-15 20:00N 49°29' E 000°54'510.2
2018-Sep-15 19:30N 49°24' E 000°55'4 7.8
2018-Sep-15 19:03N 49°21' E 000°59'0 7.1
2018-Sep-15 19:00N 49°21' E 000°59'3 6.0
2018-Sep-15 18:30N 49°24' E 001°01'3 5.8
2018-Sep-15 18:03N 49°26' E 001°03'0 5.1
2018-Sep-15 18:00N 49°27' E 001°03'0 0.3
2018-Sep-15 17:28N 49°27' E 001°03'0 0.0
2018-Sep-15 17:03N 49°27' E 001°03'0 0.0
2018-Sep-15 17:00N 49°27' E 001°03'0 0.0
2018-Sep-15 16:27N 49°27' E 001°03'0 0.0
2018-Sep-15 16:03N 49°27' E 001°03'0 0.0
2018-Sep-15 16:00N 49°27' E 001°03'0 0.0
2018-Sep-15 15:30N 49°27' E 001°03'0 0.0
2018-Sep-15 14:59N 49°27' E 001°03'0 0.0
2018-Sep-15 14:26N 49°27' E 001°03'0 0.0
2018-Sep-15 13:59N 49°27' E 001°03'0 0.0
2018-Sep-15 13:29N 49°27' E 001°03'0 0.0
2018-Sep-15 12:59N 49°27' E 001°03'0 0.0
2018-Sep-15 12:28N 49°27' E 001°03'0 0.0
2018-Sep-15 11:58N 49°27' E 001°03'0 0.0
2018-Sep-15 11:25N 49°27' E 001°03'0 0.0
2018-Sep-15 10:58N 49°27' E 001°03'0 0.0
2018-Sep-15 10:30N 49°27' E 001°03'0 0.0
2018-Sep-15 10:03N 49°27' E 001°03'0 0.0
2018-Sep-15 09:57N 49°27' E 001°03'0 0.0
2018-Sep-15 09:30N 49°27' E 001°03'0 0.0
2018-Sep-15 09:03N 49°27' E 001°03'0 0.0
2018-Sep-15 09:00N 49°27' E 001°03'0 0.0
2018-Sep-15 08:24N 49°27' E 001°03'0 0.0
2018-Sep-15 07:50N 49°27' E 001°03'0 0.0
2018-Sep-15 07:29N 49°27' E 001°03'0 0.0
2018-Sep-15 07:02N 49°27' E 001°03'0 0.0
2018-Sep-15 06:59N 49°27' E 001°03'0 0.0
2018-Sep-15 06:30N 49°27' E 001°03'1 2.1
2018-Sep-15 06:03N 49°26' E 001°02'0 1.1
2018-Sep-15 06:00N 49°26' E 001°02'2 3.4
2018-Sep-15 05:30N 49°25' E 001°01'3 7.0
2018-Sep-15 05:03N 49°22' E 000°59'0 6.5
2018-Sep-15 05:00N 49°21' E 000°59'3 6.8
2018-Sep-15 04:30N 49°24' E 000°55'512.0
2018-Sep-15 04:03N 49°29' E 000°55'112.5
2018-Sep-15 03:59N 49°29' E 000°53'4 9.2
2018-Sep-15 03:30N 49°25' E 000°52'3 6.3
2018-Sep-15 03:03N 49°26' E 000°48'011.8
2018-Sep-15 03:01N 49°27' E 000°49'510.3
2018-Sep-15 02:30N 49°31' E 000°45'4 8.6
2018-Sep-15 02:03N 49°29' E 000°40'113.6
2018-Sep-15 02:00N 49°28' E 000°40'5 9.1
2018-Sep-15 01:30N 49°27' E 000°33'4 8.4
2018-Sep-15 01:04N 49°28' E 000°28'113.5
2018-Sep-15 01:00N 49°28' E 000°27'714.0
2018-Sep-15 00:30N 49°26' E 000°17'613.3
2018-Sep-15 00:03N 49°26' E 000°07'113.9
2018-Sep-15 00:00N 49°26' E 000°06'612.7
2018-Sep-14 23:30N 49°28' W 000°03'511.5
2018-Sep-14 23:03N 49°30' W 000°10'114.0
2018-Sep-14 23:01N 49°30' W 000°11'714.0
2018-Sep-14 22:30N 49°33' W 000°21'613.1
2018-Sep-14 22:03N 49°35' W 000°30'113.1
2018-Sep-14 22:00N 49°35' W 000°31'713.7
2018-Sep-14 21:30N 49°38' W 000°40'716.0
2018-Sep-14 21:03N 49°41' W 000°51'116.0
2018-Sep-14 21:00N 49°41' W 000°52'816.7
2018-Sep-14 20:30N 49°45' W 001°03'817.0
2018-Sep-14 20:04N 49°48' W 001°14'116.7
2018-Sep-14 20:01N 49°48' W 001°15'815.8
2018-Sep-14 19:30N 49°51' W 001°27'714.8
2018-Sep-14 19:04N 49°53' W 001°37'114.3
2018-Sep-14 19:01N 49°53' W 001°38'713.9
2018-Sep-14 18:30N 49°53' W 001°49'  
Track history (hours):
 
Tides and Currents Weather Stations Pressure Air Temp Water Temp Dewpoint Dewpoint Depression Visibility Wind Speed Wind Dir Waves Ship Positions

Astor

Operator: Passat Ship Management Ltd

Last reported at 2018-Sep-24 18:19 UTC. Time now 2018-Sep-24 21:50 UTC.
Position N 53°55' E 007°43'.

Length 176 m; draft 6.2 m.

Type: Ship. MMSI: 308214000.

Date/timePositionNaut miles runAvg speedWind from/ knotsBaromVisibWave heightAir tempDewpointWater temp
2018-Sep-24 18:19N 53°55' E 007°43'710.4
2018-Sep-24 17:41N 53°52' E 007°53'210.5
2018-Sep-24 17:27N 53°52' E 007°57'511.3
2018-Sep-24 17:03N 53°50' E 008°04'012.0
2018-Sep-24 17:00N 53°50' E 008°05'713.2
2018-Sep-24 16:30N 53°45' E 008°13'715.2
2018-Sep-24 16:03N 53°41' E 008°22'115.7
2018-Sep-24 16:00N 53°40' E 008°23'714.2
2018-Sep-24 15:30N 53°35' E 008°31'2 4.6
2018-Sep-24 15:03N 53°34' E 008°33'0 0.0
2018-Sep-24 15:00N 53°34' E 008°33'0 0.0
2018-Sep-24 14:29N 53°34' E 008°33'0 0.0
2018-Sep-24 13:58N 53°34' E 008°33'0 0.0
2018-Sep-24 13:28N 53°34' E 008°33'0 0.0
2018-Sep-24 13:01N 53°34' E 008°33'0 0.1
2018-Sep-24 12:58N 53°34' E 008°33'0 0.0
2018-Sep-24 12:25N 53°34' E 008°33'0 0.0
2018-Sep-24 12:00N 53°34' E 008°33'0 0.0
2018-Sep-24 11:30N 53°34' E 008°33'0 0.0
2018-Sep-24 11:03N 53°34' E 008°33'0 0.0
2018-Sep-24 11:00N 53°34' E 008°33'0 0.0
2018-Sep-24 10:30N 53°34' E 008°33'0 0.0
2018-Sep-24 10:03N 53°34' E 008°33'0 0.1
2018-Sep-24 10:00N 53°34' E 008°33'0 0.0
2018-Sep-24 09:29N 53°34' E 008°33'0 0.0
2018-Sep-24 09:02N 53°34' E 008°33'0 0.1
2018-Sep-24 08:59N 53°34' E 008°33'0 0.0
2018-Sep-24 08:29N 53°34' E 008°33'0 0.0
2018-Sep-24 08:02N 53°34' E 008°33'0 0.1
2018-Sep-24 07:59N 53°34' E 008°33'0 0.0
2018-Sep-24 07:28N 53°34' E 008°33'0 0.0
2018-Sep-24 07:01N 53°34' E 008°33'0 0.1
2018-Sep-24 06:58N 53°34' E 008°33'0 0.0
2018-Sep-24 06:28N 53°34' E 008°33'0 0.0
2018-Sep-24 06:01N 53°34' E 008°33'0 0.1
2018-Sep-24 05:58N 53°34' E 008°33'0 0.5
2018-Sep-24 05:30N 53°34' E 008°33'3 7.0
2018-Sep-24 05:03N 53°36' E 008°30'111.1
2018-Sep-24 05:00N 53°37' E 008°29'610.9
2018-Sep-24 04:30N 53°40' E 008°22'612.8
2018-Sep-24 04:03N 53°44' E 008°15'113.7
2018-Sep-24 04:00N 53°44' E 008°14'713.5
2018-Sep-24 03:30N 53°49' E 008°06'612.3
2018-Sep-24 03:02N 53°51' E 007°57'112.8
2018-Sep-24 03:00N 53°51' E 007°56'510.8
2018-Sep-24 02:30N 53°53' E 007°47'3310.7
2018-Sep-23 23:24N 53°49' E 006°51'1713.1
2018-Sep-23 22:07N 53°45' E 006°23'113.8
2018-Sep-23 22:01N 53°45' E 006°21'013.1
2018-Sep-23 22:00N 53°45' E 006°21'3213.8
2018-Sep-23 19:38N 53°35' E 005°28'214.2
2018-Sep-23 19:30N 53°34' E 005°26'613.8
2018-Sep-23 19:03N 53°32' E 005°16'114.2
2018-Sep-23 19:00N 53°32' E 005°15'814.6
2018-Sep-23 18:29N 53°29' E 005°03'715.7
2018-Sep-23 18:03N 53°26' E 004°53'116.1
2018-Sep-23 18:01N 53°26' E 004°52'815.5
2018-Sep-23 17:30N 53°22' E 004°40'715.6
2018-Sep-23 17:04N 53°16' E 004°35'116.0
2018-Sep-23 17:00N 53°15' E 004°34'816.1
2018-Sep-23 16:30N 53°08' E 004°29'716.3
2018-Sep-23 16:03N 53°01' E 004°23'116.1
2018-Sep-23 16:01N 53°01' E 004°23'816.2
2018-Sep-23 15:31N 52°53' E 004°17'816.5
2018-Sep-23 15:03N 52°47' E 004°10'116.6
2018-Sep-23 14:58N 52°46' E 004°09'816.8
2018-Sep-23 14:30N 52°40' E 003°60'1717.0
2018-Sep-23 13:30N 52°28' E 003°40'816.9
2018-Sep-23 13:03N 52°23' E 003°31'116.6
2018-Sep-23 13:00N 52°22' E 003°30'816.6
2018-Sep-23 12:30N 52°18' E 003°18'4414.0
2018-Sep-23 09:23N 51°44' E 002°34'514.9
2018-Sep-23 09:02N 51°40' E 002°29'115.3
2018-Sep-23 08:59N 51°39' E 002°28'714.8
2018-Sep-23 08:30N 51°33' E 002°21'614.5
2018-Sep-23 08:03N 51°28' E 002°15'113.6
2018-Sep-23 08:00N 51°28' E 002°14'714.3
2018-Sep-23 07:30N 51°22' E 002°09'614.3
2018-Sep-23 07:03N 51°16' E 002°05'113.9
2018-Sep-23 07:00N 51°15' E 002°04'713.4
2018-Sep-23 06:29N 51°11' E 001°55'613.5
2018-Sep-23 06:03N 51°08' E 001°48'113.6
2018-Sep-23 06:00N 51°07' E 001°47'713.4
2018-Sep-23 05:30N 51°02' E 001°40'613.1
2018-Sep-23 05:03N 50°59' E 001°32'113.8
2018-Sep-23 05:00N 50°58' E 001°32'713.8
2018-Sep-23 04:31N 50°53' E 001°24'614.3
2018-Sep-23 04:03N 50°47' E 001°23'114.6
2018-Sep-23 04:00N 50°46' E 001°23'8912.5
2018-Sep-22 20:52N 50°34' W 000°57'513.5
2018-Sep-22 20:30N 50°39' W 000°59'4 8.5
2018-Sep-22 20:03N 50°42' W 000°59'0 8.3
2018-Sep-22 20:00N 50°43' W 000°59'611.1
2018-Sep-22 19:30N 50°46' W 001°06'2 5.0
2018-Sep-22 19:03N 50°49' W 001°06'0 0.9
2018-Sep-22 19:00N 50°49' W 001°06'0 0.0
2018-Sep-22 18:30N 50°49' W 001°06'0 0.0
2018-Sep-22 18:03N 50°49' W 001°06'0 0.0
2018-Sep-22 18:00N 50°49' W 001°06'0 0.0
2018-Sep-22 17:30N 50°49' W 001°06'0 0.0
2018-Sep-22 17:03N 50°49' W 001°06'0 0.1
2018-Sep-22 17:00N 50°49' W 001°06'0 0.0
2018-Sep-22 16:29N 50°49' W 001°06'0 0.0
2018-Sep-22 16:02N 50°49' W 001°06'0 0.0
2018-Sep-22 15:59N 50°49' W 001°06'0 0.0
2018-Sep-22 15:29N 50°49' W 001°06'0 0.0
2018-Sep-22 15:02N 50°49' W 001°06'0 0.0
2018-Sep-22 14:59N 50°49' W 001°06'0 0.0
2018-Sep-22 14:29N 50°49' W 001°06'0 0.0
2018-Sep-22 13:58N 50°49' W 001°06'0 0.0
2018-Sep-22 13:28N 50°49' W 001°06'0 0.0
2018-Sep-22 13:01N 50°49' W 001°06'0 0.1
2018-Sep-22 12:58N 50°49' W 001°06'0 0.0
2018-Sep-22 12:28N 50°49' W 001°06'0 0.0
2018-Sep-22 12:04N 50°49' W 001°06'0 0.0
2018-Sep-22 12:00N 50°49' W 001°06'0 0.0
2018-Sep-22 11:30N 50°49' W 001°06'0 0.0
2018-Sep-22 11:03N 50°49' W 001°06'0 0.0
2018-Sep-22 11:00N 50°49' W 001°06'0 0.0
2018-Sep-22 10:30N 50°49' W 001°06'0 0.0
2018-Sep-22 10:03N 50°49' W 001°06'0 0.1
2018-Sep-22 10:00N 50°49' W 001°06'0 0.0
2018-Sep-22 09:29N 50°49' W 001°06'0 0.0
2018-Sep-22 09:02N 50°49' W 001°06'0 0.0
2018-Sep-22 08:59N 50°49' W 001°06'0 0.0
2018-Sep-22 08:29N 50°49' W 001°06'0 0.0
2018-Sep-22 08:02N 50°49' W 001°06'0 0.0
2018-Sep-22 07:53N 50°49' W 001°06'0 0.0
2018-Sep-22 07:29N 50°49' W 001°06'0 0.0
2018-Sep-22 07:01N 50°49' W 001°06'0 0.0
2018-Sep-22 06:58N 50°49' W 001°06'0 0.0
2018-Sep-22 06:28N 50°49' W 001°06'0 0.0
2018-Sep-22 06:01N 50°49' W 001°06'0 0.0
2018-Sep-22 05:58N 50°49' W 001°06'0 0.0
2018-Sep-22 05:28N 50°49' W 001°06'0 0.0
2018-Sep-22 05:03N 50°49' W 001°06'0 0.0
2018-Sep-22 05:00N 50°49' W 001°06'0 0.0
2018-Sep-22 04:30N 50°49' W 001°06'0 0.0
2018-Sep-22 04:03N 50°49' W 001°06'0 0.1
2018-Sep-22 04:00N 50°49' W 001°06'0 0.0
2018-Sep-22 03:30N 50°49' W 001°06'0 0.0
2018-Sep-22 03:00N 50°49' W 001°06'0 0.0
2018-Sep-22 02:29N 50°49' W 001°06'0 0.0
2018-Sep-22 02:02N 50°49' W 001°06'0 0.1
2018-Sep-22 01:59N 50°49' W 001°06'0 0.0
2018-Sep-22 01:29N 50°49' W 001°06'0 0.0
2018-Sep-22 01:03N 50°49' W 001°06'0 0.0
2018-Sep-22 00:56N 50°49' W 001°06'0 0.0
2018-Sep-22 00:28N 50°49' W 001°06'0 0.0
2018-Sep-22 00:01N 50°49' W 001°06'0 0.1
2018-Sep-21 23:58N 50°49' W 001°06'0 0.0
2018-Sep-21 23:28N 50°49' W 001°06'0 0.0
2018-Sep-21 23:01N 50°49' W 001°06'0 0.0
2018-Sep-21 22:58N 50°49' W 001°06'0 0.0
2018-Sep-21 22:28N 50°49' W 001°06'0 0.0
2018-Sep-21 22:03N 50°49' W 001°06'0 0.0
2018-Sep-21 22:00N 50°49' W 001°06'0 0.0
2018-Sep-21 21:30N 50°49' W 001°06'0 0.0
2018-Sep-21 21:03N 50°49' W 001°06'0 0.0
2018-Sep-21 21:00N 50°49' W 001°06'0 0.0
2018-Sep-21 20:30N 50°49' W 001°06'0 0.0
2018-Sep-21 20:03N 50°49' W 001°06'0 0.0
2018-Sep-21 20:00N 50°49' W 001°06'0 0.0
2018-Sep-21 19:29N 50°49' W 001°06'0 0.0
2018-Sep-21 19:02N 50°49' W 001°06'0 0.0
2018-Sep-21 18:59N 50°49' W 001°06'0 0.0
2018-Sep-21 18:29N 50°49' W 001°06'0 0.0
2018-Sep-21 18:02N 50°49' W 001°06'0 0.0
2018-Sep-21 17:59N 50°49' W 001°06'0 0.0
2018-Sep-21 17:25N 50°49' W 001°06'0 0.0
2018-Sep-21 17:01N 50°49' W 001°06'0 0.1
2018-Sep-21 16:58N 50°49' W 001°06'0 0.0
2018-Sep-21 16:25N 50°49' W 001°06'0 0.0
2018-Sep-21 16:01N 50°49' W 001°06'0 0.0
2018-Sep-21 15:58N 50°49' W 001°06'0 0.0
2018-Sep-21 15:28N 50°49' W 001°06'0 0.0
2018-Sep-21 15:03N 50°49' W 001°06'0 0.0
2018-Sep-21 15:00N 50°49' W 001°06'1 0.6
2018-Sep-21 14:00N 50°49' W 001°07'4 7.9
2018-Sep-21 13:30N 50°45' W 001°05'511.3
2018-Sep-21 13:03N 50°42' W 000°58'111.1
2018-Sep-21 13:00N 50°41' W 000°58'3 6.8
2018-Sep-21 12:30N 50°38' W 000°59'4 7.8
2018-Sep-21 12:03N 50°35' W 001°01'110.2
2018-Sep-21 12:00N 50°34' W 001°01'510.0
2018-Sep-21 11:30N 50°29' W 001°04'4 9.5
2018-Sep-21 11:03N 50°26' W 001°07'47 9.6
2018-Sep-21 06:10N 50°33' W 002°20'212.4
2018-Sep-21 06:02N 50°34' W 002°21'012.3
2018-Sep-21 06:00N 50°34' W 002°22'2 0.1
2018-Sep-20 13:25N 50°34' W 002°26'2 5.1
2018-Sep-20 13:03N 50°36' W 002°24'3 8.1
2018-Sep-20 12:42N 50°34' W 002°21'312.7
2018-Sep-20 12:30N 50°33' W 002°17'2616.3
2018-Sep-20 10:54N 50°31' W 001°36'1016.8
2018-Sep-20 10:19N 50°31' W 001°21'417.2
2018-Sep-20 10:03N 50°31' W 001°14'117.1
2018-Sep-20 10:00N 50°31' W 001°12'816.7
2018-Sep-20 09:30N 50°30' W 000°59'716.3
2018-Sep-20 09:03N 50°31' W 000°48'115.9
2018-Sep-20 09:00N 50°31' W 000°46'815.6
2018-Sep-20 08:28N 50°30' W 000°33'2115.3
2018-Sep-20 07:07N 50°33' W 000°01'215.0
2018-Sep-20 07:00N 50°33' E 000°02'714.8
2018-Sep-20 06:30N 50°35' E 000°13'714.6
2018-Sep-20 06:03N 50°37' E 000°23'114.4
2018-Sep-20 06:00N 50°37' E 000°24'714.4
2018-Sep-20 05:30N 50°39' E 000°35'714.6
2018-Sep-20 05:03N 50°43' E 000°43'114.8
2018-Sep-20 05:00N 50°44' E 000°44'714.9
2018-Sep-20 04:30N 50°48' E 000°54'715.3
2018-Sep-20 04:03N 50°51' E 001°03'115.6
2018-Sep-20 04:00N 50°52' E 001°04'816.0
2018-Sep-20 03:30N 50°57' E 001°14'716.6
2018-Sep-20 03:03N 51°02' E 001°23'117.0
2018-Sep-20 03:00N 51°03' E 001°24'816.7
2018-Sep-20 02:30N 51°08' E 001°34'715.9
2018-Sep-20 02:03N 51°15' E 001°38'116.2
2018-Sep-20 02:00N 51°16' E 001°38'815.2
2018-Sep-20 01:30N 51°23' E 001°33'510.9
2018-Sep-20 01:03N 51°26' E 001°28'0 8.6
2018-Sep-20 01:01N 51°27' E 001°28'713.8
2018-Sep-20 00:30N 51°29' E 001°17'715.3
2018-Sep-20 00:03N 51°29' E 001°06'115.4
2018-Sep-20 00:00N 51°30' E 001°05'815.2
2018-Sep-19 23:31N 51°29' E 000°53'715.7
2018-Sep-19 23:03N 51°30' E 000°42'116.3
2018-Sep-19 23:00N 51°30' E 000°40'714.4
2018-Sep-19 22:31N 51°30' E 000°29'510.7
2018-Sep-19 22:04N 51°27' E 000°23'0 6.1
2018-Sep-19 22:00N 51°27' E 000°22'4 8.2
2018-Sep-19 21:30N 51°28' E 000°16'410.1
2018-Sep-19 21:03N 51°30' E 000°10'112.1
2018-Sep-19 21:00N 51°31' E 000°09'3 0.1
2018-Sep-18 17:19N 51°30' E 000°04'2 8.2
2018-Sep-18 17:03N 51°31' E 000°07'0 9.4
2018-Sep-18 17:00N 51°31' E 000°07'611.8
2018-Sep-18 16:30N 51°28' E 000°16'4 9.4
2018-Sep-18 16:03N 51°27' E 000°22'0 6.5
2018-Sep-18 16:00N 51°27' E 000°23'4 7.8
2018-Sep-18 15:30N 51°29' E 000°28'4 9.2
2018-Sep-18 15:03N 51°30' E 000°34'0 9.9
2018-Sep-18 15:00N 51°30' E 000°35'1212.1
2018-Sep-18 14:03N 51°29' E 000°53'114.3
2018-Sep-18 14:00N 51°29' E 000°55'713.9
2018-Sep-18 13:31N 51°30' E 001°06'613.8
2018-Sep-18 13:03N 51°29' E 001°16'113.9
2018-Sep-18 13:00N 51°29' E 001°17'713.8
2018-Sep-18 12:30N 51°28' E 001°28'4 9.5
2018-Sep-18 12:04N 51°28' E 001°35'113.8
2018-Sep-18 12:01N 51°29' E 001°35'713.8
2018-Sep-18 11:30N 51°32' E 001°45'715.0
2018-Sep-18 11:03N 51°35' E 001°55'114.9
2018-Sep-18 11:00N 51°36' E 001°56'714.8
2018-Sep-18 10:30N 51°41' E 002°04'614.3
2018-Sep-18 10:03N 51°45' E 002°12'114.3
2018-Sep-18 09:59N 51°46' E 002°13'814.2
2018-Sep-18 09:24N 51°50' E 002°24'514.3
2018-Sep-18 09:03N 51°53' E 002°31'114.4
2018-Sep-18 09:00N 51°54' E 002°32'814.1
2018-Sep-18 08:24N 51°60' E 002°41'714.3
2018-Sep-18 07:56N 52°05' E 002°48'614.5
2018-Sep-18 07:30N 52°10' E 002°55'714.5
2018-Sep-18 07:03N 52°15' E 003°01'114.7
2018-Sep-18 07:00N 52°15' E 003°02'714.6
2018-Sep-18 06:30N 52°21' E 003°09'714.9
2018-Sep-18 06:02N 52°27' E 003°16'115.4
2018-Sep-18 06:00N 52°28' E 003°16'815.3
2018-Sep-18 05:30N 52°34' E 003°24'715.8
2018-Sep-18 05:03N 52°39' E 003°31'116.4
2018-Sep-18 05:00N 52°40' E 003°32'816.1
2018-Sep-18 04:29N 52°46' E 003°40'816.4
2018-Sep-18 04:01N 52°52' E 003°48'115.9
2018-Sep-18 03:59N 52°53' E 003°49'1116.5
2018-Sep-18 03:20N 53°00' E 004°02'516.7
2018-Sep-18 03:03N 53°03' E 004°08'116.7
2018-Sep-18 03:00N 53°04' E 004°09'816.6
2018-Sep-18 02:30N 53°09' E 004°20'715.9
2018-Sep-18 02:03N 53°15' E 004°26'116.3
2018-Sep-18 02:01N 53°16' E 004°27'815.9
2018-Sep-18 01:30N 53°23' E 004°32'715.3
2018-Sep-18 01:04N 53°29' E 004°39'115.7
2018-Sep-18 01:01N 53°29' E 004°40'815.4
2018-Sep-18 00:30N 53°32' E 004°52'715.2
2018-Sep-18 00:03N 53°34' E 005°03'115.3
2018-Sep-18 00:01N 53°35' E 005°04'815.1
2018-Sep-17 23:30N 53°38' E 005°15'715.1
2018-Sep-17 23:03N 53°40' E 005°26'115.4
2018-Sep-17 22:57N 53°41' E 005°29'715.5
2018-Sep-17 22:29N 53°43' E 005°41'815.8
2018-Sep-17 21:59N 53°45' E 005°53'816.3
2018-Sep-17 21:30N 53°47' E 006°06'816.7
2018-Sep-17 21:02N 53°49' E 006°19'116.9
2018-Sep-17 20:59N 53°50' E 006°20'1317.1
2018-Sep-17 20:13N 53°53' E 006°41'417.2
2018-Sep-17 19:58N 53°54' E 006°49'3016.9
2018-Sep-17 18:10N 53°59' E 007°40'216.9
2018-Sep-17 18:04N 53°57' E 007°41'116.5
2018-Sep-17 18:00N 53°57' E 007°42'1013.7
2018-Sep-17 17:16N 53°52' E 007°57'315.2
2018-Sep-17 17:04N 53°51' E 008°02'115.7
2018-Sep-17 17:00N 53°50' E 008°04'815.7
2018-Sep-17 16:30N 53°45' E 008°13'714.8
2018-Sep-17 16:03N 53°41' E 008°22'114.2
2018-Sep-17 16:00N 53°40' E 008°23'612.1
2018-Sep-17 15:30N 53°36' E 008°30'3 6.7
2018-Sep-17 15:03N 53°34' E 008°33'0 0.8
2018-Sep-17 14:59N 53°34' E 008°33'0 0.0
2018-Sep-17 14:28N 53°34' E 008°33'0 0.0
2018-Sep-17 13:58N 53°34' E 008°33'0 0.0
2018-Sep-17 13:28N 53°34' E 008°33'0 0.0
2018-Sep-17 13:01N 53°34' E 008°33'0 0.0
2018-Sep-17 12:58N 53°34' E 008°33'0 0.0
2018-Sep-17 12:28N 53°34' E 008°33'0 0.0
2018-Sep-17 12:03N 53°34' E 008°33'0 0.0
2018-Sep-17 12:00N 53°34' E 008°33'0 0.0
2018-Sep-17 11:30N 53°34' E 008°33'0 0.0
2018-Sep-17 11:00N 53°34' E 008°33'0 0.0
2018-Sep-17 10:30N 53°34' E 008°33'0 0.0
2018-Sep-17 10:03N 53°34' E 008°33'0 0.0
2018-Sep-17 10:00N 53°34' E 008°33'0 0.0
2018-Sep-17 09:29N 53°34' E 008°33'0 0.0
2018-Sep-17 09:02N 53°34' E 008°33'0 0.0
2018-Sep-17 08:59N 53°34' E 008°33'0 0.0
2018-Sep-17 08:29N 53°34' E 008°33'0 0.0
2018-Sep-17 08:02N 53°34' E 008°33'0 0.0
2018-Sep-17 07:59N 53°34' E 008°33'0 0.0
2018-Sep-17 07:28N 53°34' E 008°33'0 0.0
2018-Sep-17 07:01N 53°34' E 008°33'0 0.0
2018-Sep-17 06:58N 53°34' E 008°33'0 0.0
2018-Sep-17 06:30N 53°34' E 008°33'4 7.8
2018-Sep-17 06:03N 53°36' E 008°30'112.4
2018-Sep-17 06:00N 53°37' E 008°29'612.3
2018-Sep-17 05:30N 53°41' E 008°21'612.7
2018-Sep-17 05:03N 53°44' E 008°13'112.7
2018-Sep-17 05:00N 53°45' E 008°13'612.7
2018-Sep-17 04:30N 53°50' E 008°05'612.8
2018-Sep-17 04:03N 53°52' E 007°56'113.3
2018-Sep-17 04:00N 53°52' E 007°55'611.3
2018-Sep-17 03:30N 53°53' E 007°46'2912.7
2018-Sep-17 01:15N 53°50' E 006°57'514.7
2018-Sep-17 00:54N 53°50' E 006°49'715.6
2018-Sep-17 00:26N 53°48' E 006°37'2415.7
2018-Sep-16 22:54N 53°41' E 005°58'615.6
2018-Sep-16 22:30N 53°39' E 005°48'715.6
2018-Sep-16 22:03N 53°37' E 005°37'115.6
2018-Sep-16 22:00N 53°37' E 005°36'815.7
2018-Sep-16 21:30N 53°34' E 005°23'715.6
2018-Sep-16 21:03N 53°32' E 005°12'115.7
2018-Sep-16 21:00N 53°31' E 005°10'815.5
2018-Sep-16 20:30N 53°29' E 004°59'714.9
2018-Sep-16 20:03N 53°26' E 004°48'114.8
2018-Sep-16 20:00N 53°26' E 004°47'814.6
2018-Sep-16 19:28N 53°19' E 004°39'716.6
2018-Sep-16 19:03N 53°13' E 004°34'117.0
2018-Sep-16 19:00N 53°12' E 004°33'817.0
2018-Sep-16 18:30N 53°05' E 004°27'816.7
2018-Sep-16 18:03N 52°58' E 004°21'116.4
2018-Sep-16 18:00N 52°57' E 004°20'816.3
2018-Sep-16 17:30N 52°50' E 004°15'716.2
2018-Sep-16 17:03N 52°44' E 004°08'116.2
2018-Sep-16 17:00N 52°43' E 004°07'815.7
2018-Sep-16 16:30N 52°39' E 003°57'716.0
2018-Sep-16 16:03N 52°34' E 003°48'115.4
2018-Sep-16 16:00N 52°33' E 003°48'815.9
2018-Sep-16 15:30N 52°27' E 003°39'715.4
2018-Sep-16 15:03N 52°22' E 003°31'115.8
2018-Sep-16 15:00N 52°22' E 003°30'815.6
2018-Sep-16 14:30N 52°16' E 003°21'1615.3
2018-Sep-16 13:27N 52°05' E 003°03'2315.1
2018-Sep-16 11:56N 51°48' E 002°38'915.3
2018-Sep-16 11:22N 51°41' E 002°29'615.4
2018-Sep-16 11:01N 51°37' E 002°23'014.6
2018-Sep-16 10:59N 51°37' E 002°23'815.7
2018-Sep-16 10:30N 51°31' E 002°15'716.0
2018-Sep-16 10:03N 51°24' E 002°11'116.0
2018-Sep-16 10:00N 51°23' E 002°10'816.1
2018-Sep-16 09:30N 51°16' E 002°05'715.7
2018-Sep-16 09:03N 51°12' E 001°56'116.1
2018-Sep-16 09:00N 51°11' E 001°55'815.9
2018-Sep-16 08:30N 51°06' E 001°46'716.4
2018-Sep-16 08:03N 51°01' E 001°37'116.4
2018-Sep-16 08:00N 51°00' E 001°36'816.8
2018-Sep-16 07:30N 50°54' E 001°27'817.0
2018-Sep-16 07:03N 50°47' E 001°23'117.0
2018-Sep-16 07:00N 50°46' E 001°23'816.5
2018-Sep-16 06:30N 50°40' E 001°15'816.9
2018-Sep-16 06:03N 50°34' E 001°06'216.8
2018-Sep-16 05:57N 50°33' E 001°04'816.8
2018-Sep-16 05:30N 50°28' E 000°55'716.6
2018-Sep-16 05:03N 50°23' E 000°47'216.8
2018-Sep-16 04:56N 50°21' E 000°46'816.8
2018-Sep-16 04:29N 50°15' E 000°39'716.8
2018-Sep-16 04:03N 50°09' E 000°32'116.8
2018-Sep-16 03:59N 50°08' E 000°31'816.8
2018-Sep-16 03:29N 50°01' E 000°23'717.0
2018-Sep-16 03:04N 49°55' E 000°16'117.1
2018-Sep-16 03:01N 49°55' E 000°16'917.5
2018-Sep-16 02:30N 49°48' E 000°07'817.9
2018-Sep-16 02:03N 49°41' E 000°00'117.5
2018-Sep-16 02:01N 49°41' W 000°00'917.4
2018-Sep-16 01:31N 49°33' W 000°06'511.8
2018-Sep-16 01:04N 49°28' W 000°01'111.2
2018-Sep-16 01:01N 49°28' W 000°01'612.9
2018-Sep-16 00:30N 49°26' E 000°09'612.3
2018-Sep-16 00:03N 49°26' E 000°17'110.9
2018-Sep-16 00:00N 49°26' E 000°18'5 9.8
2018-Sep-15 23:31N 49°27' E 000°25'4 8.2
2018-Sep-15 23:03N 49°29' E 000°30'0 6.6
2018-Sep-15 23:01N 49°29' E 000°31'4 7.1
2018-Sep-15 22:31N 49°26' E 000°34'4 9.5
2018-Sep-15 22:03N 49°29' E 000°40'112.6
2018-Sep-15 22:00N 49°29' E 000°40'4 8.5
2018-Sep-15 21:30N 49°31' E 000°46'410.1
2018-Sep-15 21:04N 49°26' E 000°49'110.4
2018-Sep-15 21:01N 49°26' E 000°48'3 5.4
2018-Sep-15 20:31N 49°25' E 000°52'4 9.3
2018-Sep-15 20:04N 49°29' E 000°54'110.5
2018-Sep-15 20:00N 49°29' E 000°54'510.2
2018-Sep-15 19:30N 49°24' E 000°55'4 7.8
2018-Sep-15 19:03N 49°21' E 000°59'0 7.1
2018-Sep-15 19:00N 49°21' E 000°59'3 6.0
2018-Sep-15 18:30N 49°24' E 001°01'3 5.8
2018-Sep-15 18:03N 49°26' E 001°03'0 5.1
2018-Sep-15 18:00N 49°27' E 001°03'0 0.3
2018-Sep-15 17:28N 49°27' E 001°03'0 0.0
2018-Sep-15 17:03N 49°27' E 001°03'0 0.0
2018-Sep-15 17:00N 49°27' E 001°03'0 0.0
2018-Sep-15 16:27N 49°27' E 001°03'0 0.0
2018-Sep-15 16:03N 49°27' E 001°03'0 0.0
2018-Sep-15 16:00N 49°27' E 001°03'0 0.0
2018-Sep-15 15:30N 49°27' E 001°03'0 0.0
2018-Sep-15 14:59N 49°27' E 001°03'0 0.0
2018-Sep-15 14:26N 49°27' E 001°03'0 0.0
2018-Sep-15 13:59N 49°27' E 001°03'0 0.0
2018-Sep-15 13:29N 49°27' E 001°03'0 0.0
2018-Sep-15 12:59N 49°27' E 001°03'0 0.0
2018-Sep-15 12:28N 49°27' E 001°03'0 0.0
2018-Sep-15 11:58N 49°27' E 001°03'0 0.0
2018-Sep-15 11:25N 49°27' E 001°03'0 0.0
2018-Sep-15 10:58N 49°27' E 001°03'0 0.0
2018-Sep-15 10:30N 49°27' E 001°03'0 0.0
2018-Sep-15 10:03N 49°27' E 001°03'0 0.0
2018-Sep-15 09:57N 49°27' E 001°03'0 0.0
2018-Sep-15 09:30N 49°27' E 001°03'0 0.0
2018-Sep-15 09:03N 49°27' E 001°03'0 0.0
2018-Sep-15 09:00N 49°27' E 001°03'0 0.0
2018-Sep-15 08:24N 49°27' E 001°03'0 0.0
2018-Sep-15 07:50N 49°27' E 001°03'0 0.0
2018-Sep-15 07:29N 49°27' E 001°03'0 0.0
2018-Sep-15 07:02N 49°27' E 001°03'0 0.0
2018-Sep-15 06:59N 49°27' E 001°03'0 0.0
2018-Sep-15 06:30N 49°27' E 001°03'1 2.1
2018-Sep-15 06:03N 49°26' E 001°02'0 1.1
2018-Sep-15 06:00N 49°26' E 001°02'2 3.4
2018-Sep-15 05:30N 49°25' E 001°01'3 7.0
2018-Sep-15 05:03N 49°22' E 000°59'0 6.5
2018-Sep-15 05:00N 49°21' E 000°59'3 6.8
2018-Sep-15 04:30N 49°24' E 000°55'512.0
2018-Sep-15 04:03N 49°29' E 000°55'112.5
2018-Sep-15 03:59N 49°29' E 000°53'4 9.2
2018-Sep-15 03:30N 49°25' E 000°52'3 6.3
2018-Sep-15 03:03N 49°26' E 000°48'011.8
2018-Sep-15 03:01N 49°27' E 000°49'510.3
2018-Sep-15 02:30N 49°31' E 000°45'4 8.6
2018-Sep-15 02:03N 49°29' E 000°40'113.6
2018-Sep-15 02:00N 49°28' E 000°40'5 9.1
2018-Sep-15 01:30N 49°27' E 000°33'4 8.4
2018-Sep-15 01:04N 49°28' E 000°28'113.5
2018-Sep-15 01:00N 49°28' E 000°27'714.0
2018-Sep-15 00:30N 49°26' E 000°17'613.3
2018-Sep-15 00:03N 49°26' E 000°07'113.9
2018-Sep-15 00:00N 49°26' E 000°06'612.7
2018-Sep-14 23:30N 49°28' W 000°03'511.5
2018-Sep-14 23:03N 49°30' W 000°10'114.0
2018-Sep-14 23:01N 49°30' W 000°11'714.0
2018-Sep-14 22:30N 49°33' W 000°21'613.1
2018-Sep-14 22:03N 49°35' W 000°30'113.1
2018-Sep-14 22:00N 49°35' W 000°31'713.7
2018-Sep-14 21:30N 49°38' W 000°40'716.0
2018-Sep-14 21:03N 49°41' W 000°51'116.0
2018-Sep-14 21:00N 49°41' W 000°52'816.7
2018-Sep-14 20:30N 49°45' W 001°03'817.0
2018-Sep-14 20:04N 49°48' W 001°14'116.7
2018-Sep-14 20:01N 49°48' W 001°15'815.8
2018-Sep-14 19:30N 49°51' W 001°27'714.8
2018-Sep-14 19:04N 49°53' W 001°37'114.3
2018-Sep-14 19:01N 49°53' W 001°38'713.9
2018-Sep-14 18:30N 49°53' W 001°49'  

Dump ship's entire track history